createdAt,value
2018-06-19T02:23:19.743Z,16.09
2018-06-19T02:24:19.356Z,16.14
2018-06-19T02:25:19.475Z,16.11
2018-06-19T02:26:19.360Z,16.20
2018-06-19T02:27:19.292Z,16.24
2018-06-19T02:28:19.198Z,16.27
2018-06-19T02:29:19.220Z,16.25
2018-06-19T02:30:19.177Z,16.31
2018-06-19T02:31:19.163Z,16.33
2018-06-19T02:32:19.165Z,16.39
2018-06-19T02:33:19.160Z,16.24
2018-06-19T02:34:19.220Z,16.33
2018-06-19T02:35:19.759Z,16.33
2018-06-19T02:36:19.149Z,16.35
2018-06-19T02:37:19.113Z,16.33
2018-06-19T02:38:19.102Z,16.28
2018-06-19T02:39:19.080Z,16.34
2018-06-19T02:40:19.110Z,16.41
2018-06-19T02:41:19.066Z,16.28
2018-06-19T02:42:19.048Z,16.35
2018-06-19T02:43:19.044Z,16.38
2018-06-19T02:44:19.029Z,16.35
2018-06-19T02:45:19.177Z,16.39
2018-06-19T02:46:19.021Z,16.33
2018-06-19T02:47:19.026Z,16.33
2018-06-19T02:48:18.985Z,16.34
2018-06-19T02:49:18.980Z,16.31
2018-06-19T02:50:18.975Z,16.34
2018-06-19T02:51:19.112Z,16.35
2018-06-19T02:52:18.954Z,16.35
2018-06-19T02:53:18.944Z,16.33
2018-06-19T02:54:18.931Z,16.33
2018-06-19T02:55:18.939Z,16.45
2018-06-19T02:56:18.923Z,16.41
2018-06-19T02:57:19.235Z,16.42
2018-06-19T02:58:18.898Z,16.43
2018-06-19T02:59:18.892Z,16.39
2018-06-19T03:00:18.916Z,16.38
2018-06-19T03:01:18.884Z,16.43
2018-06-19T03:02:18.855Z,16.42
2018-06-19T03:03:18.858Z,16.45
2018-06-19T03:04:18.844Z,16.53
2018-06-19T03:05:18.824Z,16.43
2018-06-19T03:06:18.817Z,16.43
2018-06-19T03:07:18.812Z,16.53
2018-06-19T03:08:18.867Z,16.43
2018-06-19T03:09:18.846Z,16.50
2018-06-19T03:10:18.776Z,16.52
2018-06-19T03:11:18.773Z,16.49
2018-06-19T03:12:18.758Z,16.53
2018-06-19T03:13:18.777Z,16.50
2018-06-19T03:14:19.094Z,16.53
2018-06-19T03:15:18.724Z,16.50
2018-06-19T03:16:18.717Z,16.45
2018-06-19T03:17:18.714Z,16.46
2018-06-19T03:18:18.710Z,16.45
2018-06-19T03:19:18.690Z,16.38
2018-06-19T03:20:18.689Z,16.45
2018-06-19T03:21:18.669Z,16.33
2018-06-19T03:22:18.651Z,16.31
2018-06-19T03:23:18.651Z,16.28
2018-06-19T03:24:18.689Z,16.35
2018-06-19T03:25:18.642Z,16.33
2018-06-19T03:26:18.631Z,16.34
2018-06-19T03:27:18.603Z,16.35
2018-06-19T03:28:18.630Z,16.23
2018-06-19T03:29:18.588Z,16.34
2018-06-19T03:30:18.619Z,16.27
2018-06-19T03:31:19.016Z,16.31
2018-06-19T03:32:18.573Z,16.33
2018-06-19T03:33:18.872Z,16.30
2018-06-19T03:34:18.560Z,16.27
2018-06-19T03:35:18.583Z,16.25
2018-06-19T03:36:18.551Z,16.20
2018-06-19T03:37:18.555Z,16.14
2018-06-19T03:38:18.513Z,16.17
2018-06-19T03:39:18.498Z,16.14
2018-06-19T03:40:18.493Z,16.14
2018-06-19T03:41:23.166Z,16.12
2018-06-19T03:42:18.457Z,16.09
2018-06-19T03:43:18.689Z,16.15
2018-06-19T03:44:18.641Z,16.14
2018-06-19T03:45:18.751Z,16.15
2018-06-19T03:46:18.425Z,16.14
2018-06-19T03:47:18.531Z,16.17
2018-06-19T03:48:18.399Z,16.14
2018-06-19T03:49:18.400Z,16.12
2018-06-19T03:50:18.407Z,16.14
2018-06-19T03:51:18.409Z,16.12
2018-06-19T03:52:18.397Z,16.14
2018-06-19T03:53:18.516Z,16.12
2018-06-19T03:54:18.363Z,16.12
2018-06-19T03:55:18.355Z,16.12
2018-06-19T03:56:18.340Z,16.15
2018-06-19T03:57:18.451Z,16.12
2018-06-19T03:58:18.307Z,16.08
2018-06-19T03:59:18.722Z,16.11
2018-06-19T04:00:18.327Z,16.14
2018-06-19T04:01:18.289Z,16.11
2018-06-19T04:02:18.280Z,16.12
2018-06-19T04:03:18.321Z,16.08
2018-06-19T04:04:18.276Z,16.04
2018-06-19T04:05:18.807Z,16.11
2018-06-19T04:06:18.279Z,16.09
2018-06-19T04:07:18.227Z,16.11
2018-06-19T04:08:18.201Z,16.11
2018-06-19T04:09:18.209Z,16.07
2018-06-19T04:10:18.260Z,16.11
2018-06-19T04:11:18.178Z,16.09
2018-06-19T04:12:18.171Z,16.11
2018-06-19T04:13:19.394Z,16.11
2018-06-19T04:14:18.156Z,16.12
2018-06-19T04:15:18.184Z,16.09
2018-06-19T04:16:18.205Z,16.09
2018-06-19T04:17:18.250Z,16.04
2018-06-19T04:18:18.116Z,16.07
2018-06-19T04:19:18.109Z,16.09
2018-06-19T04:20:18.101Z,16.12
2018-06-19T04:21:18.087Z,16.07
2018-06-19T04:22:18.101Z,16.02
2018-06-19T04:23:18.160Z,16.04
2018-06-19T04:24:18.062Z,16.07
2018-06-19T04:25:18.119Z,16.04
2018-06-19T04:26:18.916Z,16.11
2018-06-19T04:31:21.819Z,16.12
2018-06-19T04:32:13.743Z,16.09
2018-06-19T04:33:18.915Z,16.04
2018-06-19T04:34:13.768Z,16.02
2018-06-19T04:35:11.892Z,16.01
2018-06-19T04:36:11.882Z,16.05
2018-06-19T04:37:11.853Z,15.96
2018-06-19T04:38:11.861Z,16.04
2018-06-19T04:39:11.978Z,16.07
2018-06-19T04:40:12.010Z,16.02
2018-06-19T04:41:11.830Z,16.07
2018-06-19T04:42:11.839Z,16.02
2018-06-19T04:43:11.825Z,16.08
2018-06-19T04:44:11.902Z,16.07
2018-06-19T04:45:11.862Z,16.05
2018-06-19T04:46:11.933Z,16.12
2018-06-19T04:47:11.762Z,16.11
2018-06-19T04:48:11.779Z,16.11
2018-06-19T04:49:11.728Z,16.11
2018-06-19T04:50:11.734Z,16.15
2018-06-19T04:51:11.780Z,16.15
2018-06-19T04:52:11.759Z,16.21
2018-06-19T04:53:11.722Z,16.17
2018-06-19T04:54:12.224Z,16.15
2018-06-19T04:55:11.682Z,16.15
2018-06-19T04:56:12.555Z,16.11
2018-06-19T04:57:11.673Z,16.15
2018-06-19T04:58:11.657Z,16.11
2018-06-19T04:59:11.639Z,16.15
2018-06-19T05:00:11.640Z,16.15
2018-06-19T05:01:11.618Z,16.20
2018-06-19T05:02:12.589Z,16.14
2018-06-19T05:03:11.592Z,16.15
2018-06-19T05:04:11.610Z,16.20
2018-06-19T05:05:11.575Z,16.27
2018-06-19T05:06:11.569Z,16.28
2018-06-19T05:07:11.623Z,16.21
2018-06-19T05:08:11.545Z,16.31
2018-06-19T05:09:11.542Z,16.33
2018-06-19T05:10:11.541Z,16.25
2018-06-19T05:11:11.548Z,16.33
2018-06-19T05:12:11.516Z,16.31
2018-06-19T05:13:11.543Z,16.33
2018-06-19T05:14:12.692Z,16.41
2018-06-19T05:15:11.484Z,16.34
2018-06-19T05:16:11.468Z,16.31
2018-06-19T05:17:11.478Z,16.42
2018-06-19T05:18:11.453Z,16.25
2018-06-19T05:19:11.531Z,16.39
2018-06-19T05:20:11.437Z,16.43
2018-06-19T05:21:11.428Z,16.39
2018-06-19T05:22:11.422Z,16.45
2018-06-19T05:23:11.431Z,16.52
2018-06-19T05:24:11.387Z,16.58
2018-06-19T05:25:11.447Z,16.53
2018-06-19T05:26:11.499Z,16.46
2018-06-19T05:27:11.465Z,16.56
2018-06-19T05:28:11.347Z,16.56
2018-06-19T05:29:11.355Z,16.57
2018-06-19T05:30:11.337Z,16.61
2018-06-19T05:31:11.333Z,16.56
2018-06-19T05:32:11.521Z,16.57
2018-06-19T05:33:11.298Z,16.56
2018-06-19T05:34:11.316Z,16.57
2018-06-19T05:35:11.300Z,16.53
2018-06-19T05:36:11.279Z,16.56
2018-06-19T05:37:11.307Z,16.50
2018-06-19T05:38:11.277Z,16.52
2018-06-19T05:39:11.267Z,16.60
2018-06-19T05:40:11.275Z,16.50
2018-06-19T05:41:11.224Z,16.53
2018-06-19T05:42:11.667Z,16.57
2018-06-19T05:43:11.876Z,16.52
2018-06-19T05:44:11.216Z,16.49
2018-06-19T05:45:11.198Z,16.43
2018-06-19T05:46:11.243Z,16.49
2018-06-19T05:47:11.192Z,16.45
2018-06-19T05:48:13.760Z,16.41
2018-06-19T05:49:11.158Z,16.52
2018-06-19T05:50:11.183Z,16.39
2018-06-19T05:51:11.139Z,16.39
2018-06-19T05:52:11.199Z,16.45
2018-06-19T05:53:11.119Z,16.41
2018-06-19T05:54:11.166Z,16.41
2018-06-19T05:55:11.136Z,16.45
2018-06-19T05:56:11.216Z,16.49
2018-06-19T05:57:11.239Z,16.42
2018-06-19T05:58:11.216Z,16.43
2018-06-19T05:59:11.068Z,16.39
2018-06-19T06:00:11.088Z,16.45
2018-06-19T06:01:11.074Z,16.41
2018-06-19T06:02:11.354Z,16.41
2018-06-19T06:03:11.268Z,16.30
2018-06-19T06:04:11.160Z,16.35
2018-06-19T06:05:11.001Z,16.31
2018-06-19T06:06:10.997Z,16.38
2018-06-19T06:07:10.988Z,16.48
2018-06-19T06:08:11.002Z,16.46
2018-06-19T06:09:10.976Z,16.50
2018-06-19T06:10:10.959Z,16.53
2018-06-19T06:11:11.006Z,16.57
2018-06-19T06:12:10.923Z,16.50
2018-06-19T06:13:10.938Z,16.57
2018-06-19T06:14:10.912Z,16.56
2018-06-19T06:15:10.896Z,16.58
2018-06-19T06:16:10.947Z,16.57
2018-06-19T06:17:10.894Z,16.61
2018-06-19T06:18:10.876Z,16.52
2018-06-19T06:19:10.898Z,16.64
2018-06-19T06:20:10.849Z,16.53
2018-06-19T06:21:10.887Z,16.66
2018-06-19T06:22:10.915Z,16.64
2018-06-19T06:23:10.834Z,16.68
2018-06-19T06:24:10.829Z,16.66
2018-06-19T06:25:10.811Z,16.64
2018-06-19T06:26:10.837Z,16.67
2018-06-19T06:27:11.489Z,16.66
2018-06-19T06:28:10.785Z,16.66
2018-06-19T06:29:10.767Z,16.66
2018-06-19T06:30:10.823Z,16.66
2018-06-19T06:31:10.780Z,16.66
2018-06-19T06:32:10.768Z,16.67
2018-06-19T06:33:10.774Z,16.63
2018-06-19T06:34:10.720Z,16.66
2018-06-19T06:35:10.727Z,16.63
2018-06-19T06:36:10.908Z,16.63
2018-06-19T06:37:11.008Z,16.73
2018-06-19T06:38:10.701Z,16.66
2018-06-19T06:39:10.715Z,16.78
2018-06-19T06:40:10.678Z,16.70
2018-06-19T06:41:11.280Z,16.70
2018-06-19T06:42:10.705Z,16.73
2018-06-19T06:43:10.871Z,16.78
2018-06-19T06:44:10.620Z,16.73
2018-06-19T06:45:10.630Z,16.73
2018-06-19T06:46:10.658Z,16.78
2018-06-19T06:47:10.602Z,16.79
2018-06-19T06:48:10.595Z,16.88
2018-06-19T06:49:10.847Z,16.89
2018-06-19T06:50:10.589Z,16.93
2018-06-19T06:51:11.277Z,16.97
2018-06-19T06:52:10.569Z,16.97
2018-06-19T06:53:10.553Z,16.96
2018-06-19T06:54:10.831Z,16.94
2018-06-19T06:55:10.528Z,16.97
2018-06-19T06:56:10.519Z,16.94
2018-06-19T06:57:10.526Z,17.00
2018-06-19T06:58:10.497Z,17.01
2018-06-19T06:59:10.491Z,17.01
2018-06-19T07:00:10.511Z,17.03
2018-06-19T07:01:10.479Z,17.01
2018-06-19T07:02:10.469Z,17.03
2018-06-19T07:03:10.452Z,17.21
2018-06-19T07:04:10.443Z,17.08
2018-06-19T07:05:10.471Z,17.16
2018-06-19T07:06:11.308Z,17.11
2018-06-19T07:07:10.444Z,17.15
2018-06-19T07:08:10.420Z,17.21
2018-06-19T07:09:10.455Z,17.19
2018-06-19T07:10:10.452Z,17.31
2018-06-19T07:11:10.410Z,17.30
2018-06-19T07:12:10.373Z,17.40
2018-06-19T07:13:10.367Z,17.49
2018-06-19T07:14:10.356Z,17.54
2018-06-19T07:15:10.368Z,17.43
2018-06-19T07:16:10.499Z,17.52
2018-06-19T07:17:10.329Z,17.55
2018-06-19T07:18:10.389Z,17.41
2018-06-19T07:19:10.397Z,17.54
2018-06-19T07:20:10.311Z,17.52
2018-06-19T07:21:10.313Z,17.46
2018-06-19T07:22:10.304Z,17.56
2018-06-19T07:23:10.310Z,17.62
2018-06-19T07:24:10.282Z,17.66
2018-06-19T07:25:10.268Z,17.66
2018-06-19T07:26:10.269Z,17.59
2018-06-19T07:27:10.273Z,17.70
2018-06-19T07:28:10.234Z,17.68
2018-06-19T07:29:10.330Z,17.75
2018-06-19T07:30:10.235Z,17.72
2018-06-19T07:31:10.203Z,17.75
2018-06-19T07:32:10.209Z,17.75
2018-06-19T07:33:10.213Z,17.71
2018-06-19T07:34:10.194Z,17.81
2018-06-19T07:35:10.209Z,17.82
2018-06-19T07:36:10.157Z,17.86
2018-06-19T07:37:10.157Z,17.89
2018-06-19T07:38:10.242Z,17.96
2018-06-19T07:39:10.183Z,17.96
2018-06-19T07:40:10.140Z,17.97
2018-06-19T07:41:10.134Z,17.97
2018-06-19T07:42:10.123Z,17.90
2018-06-19T07:43:10.116Z,17.89
2018-06-19T07:44:10.158Z,17.96
2018-06-19T07:45:10.098Z,17.90
2018-06-19T07:46:10.092Z,17.87
2018-06-19T07:47:10.081Z,17.92
2018-06-19T07:48:10.060Z,17.89
2018-06-19T07:49:10.087Z,17.82
2018-06-19T07:50:10.052Z,17.87
2018-06-19T07:51:10.067Z,17.71
2018-06-19T07:52:10.036Z,17.74
2018-06-19T07:53:10.078Z,17.68
2018-06-19T07:54:10.019Z,17.71
2018-06-19T07:55:10.013Z,17.70
2018-06-19T07:56:10.007Z,17.63
2018-06-19T07:57:09.994Z,17.75
2018-06-19T07:58:09.988Z,17.68
2018-06-19T07:59:09.967Z,17.72
2018-06-19T08:00:09.963Z,17.70
2018-06-19T08:01:10.103Z,17.72
2018-06-19T08:02:09.949Z,17.71
2018-06-19T08:03:09.937Z,17.77
2018-06-19T08:04:09.939Z,17.77
2018-06-19T08:05:09.921Z,17.72
2018-06-19T08:06:10.002Z,17.77
2018-06-19T08:07:09.894Z,17.86
2018-06-19T08:08:09.899Z,17.81
2018-06-19T08:09:09.886Z,17.84
2018-06-19T08:10:09.869Z,17.84
2018-06-19T08:11:09.865Z,17.93
2018-06-19T08:12:10.014Z,17.93
2018-06-19T08:13:09.847Z,17.90
2018-06-19T08:14:09.831Z,17.79
2018-06-19T08:15:09.831Z,17.82
2018-06-19T08:16:09.832Z,17.74
2018-06-19T08:17:09.811Z,17.75
2018-06-19T08:18:09.858Z,17.82
2018-06-19T08:19:09.794Z,17.75
2018-06-19T08:20:09.788Z,17.82
2018-06-19T08:21:09.773Z,17.82
2018-06-19T08:22:09.783Z,17.92
2018-06-19T08:23:09.763Z,17.90
2018-06-19T08:24:09.783Z,17.93
2018-06-19T08:25:09.751Z,17.97
2018-06-19T08:26:09.753Z,17.92
2018-06-19T08:27:09.738Z,18.05
2018-06-19T08:28:09.730Z,18.02
2018-06-19T08:29:09.751Z,18.00
2018-06-19T08:30:09.716Z,17.95
2018-06-19T08:31:09.897Z,17.90
2018-06-19T08:32:09.823Z,17.90
2018-06-19T08:33:10.091Z,17.96
2018-06-19T08:34:09.710Z,17.90
2018-06-19T08:35:09.661Z,17.93
2018-06-19T08:36:09.670Z,17.89
2018-06-19T08:37:09.645Z,17.84
2018-06-19T08:38:09.639Z,17.82
2018-06-19T08:39:09.634Z,17.82
2018-06-19T08:40:09.782Z,17.78
2018-06-19T08:41:09.625Z,17.82
2018-06-19T08:42:09.601Z,17.89
2018-06-19T08:43:09.602Z,17.78
2018-06-19T08:44:09.586Z,17.82
2018-06-19T08:45:09.676Z,17.82
2018-06-19T08:46:09.612Z,17.89
2018-06-19T08:47:10.336Z,17.78
2018-06-19T08:48:09.563Z,17.71
2018-06-19T08:49:09.540Z,17.71
2018-06-19T08:50:09.530Z,17.70
2018-06-19T08:51:09.537Z,17.64
2018-06-19T08:52:09.514Z,17.63
2018-06-19T08:53:09.510Z,17.68
2018-06-19T08:54:09.507Z,17.63
2018-06-19T08:55:09.512Z,17.63
2018-06-19T08:56:09.496Z,17.70
2018-06-19T08:57:09.467Z,17.66
2018-06-19T08:58:09.468Z,17.68
2018-06-19T08:59:11.356Z,17.72
2018-06-19T09:00:09.483Z,17.77
2018-06-19T09:01:09.436Z,17.77
2018-06-19T09:02:09.461Z,17.77
2018-06-19T09:03:09.411Z,17.79
2018-06-19T09:04:09.410Z,17.78
2018-06-19T09:05:09.406Z,17.79
2018-06-19T09:06:09.402Z,17.82
2018-06-19T09:07:09.490Z,17.77
2018-06-19T09:08:09.418Z,17.77
2018-06-19T09:09:09.360Z,17.81
2018-06-19T09:10:09.354Z,17.82
2018-06-19T09:11:09.384Z,17.77
2018-06-19T09:12:09.368Z,17.72
2018-06-19T09:13:09.338Z,17.90
2018-06-19T09:14:09.338Z,17.79
2018-06-19T09:15:09.327Z,17.75
2018-06-19T09:16:09.349Z,17.78
2018-06-19T09:17:09.378Z,17.84
2018-06-19T09:18:09.295Z,17.84
2018-06-19T09:19:09.356Z,17.92
2018-06-19T09:20:09.322Z,17.96
2018-06-19T09:21:09.298Z,17.96
2018-06-19T09:22:09.868Z,18.03
2018-06-19T09:23:09.246Z,18.11
2018-06-19T09:24:09.236Z,18.10
2018-06-19T09:25:09.236Z,17.96
2018-06-19T09:26:09.228Z,18.12
2018-06-19T09:27:09.207Z,18.10
2018-06-19T09:28:11.856Z,18.08
2018-06-19T09:29:09.205Z,18.10
2018-06-19T09:30:09.191Z,18.02
2018-06-19T09:31:09.187Z,18.08
2018-06-19T09:32:09.177Z,18.10
2018-06-19T09:33:09.173Z,18.05
2018-06-19T09:34:09.152Z,17.99
2018-06-19T09:35:09.154Z,18.05
2018-06-19T09:36:09.140Z,18.15
2018-06-19T09:37:09.127Z,18.14
2018-06-19T09:38:09.144Z,18.26
2018-06-19T09:39:09.119Z,18.20
2018-06-19T09:40:09.138Z,18.14
2018-06-19T09:41:09.100Z,18.27
2018-06-19T09:42:09.086Z,18.23
2018-06-19T09:43:09.087Z,18.15
2018-06-19T09:44:09.087Z,18.20
2018-06-19T09:45:09.063Z,18.15
2018-06-19T09:46:09.060Z,18.21
2018-06-19T09:47:09.121Z,18.23
2018-06-19T09:48:09.032Z,18.12
2018-06-19T09:49:09.031Z,18.23
2018-06-19T09:50:09.013Z,18.26
2018-06-19T09:51:09.030Z,18.25
2018-06-19T09:52:09.010Z,18.32
2018-06-19T09:53:09.001Z,18.25
2018-06-19T09:54:09.000Z,18.27
2018-06-19T09:55:15.025Z,18.20
2018-06-19T09:56:10.865Z,18.18
2018-06-19T09:57:08.984Z,18.21
2018-06-19T09:58:08.948Z,18.10
2018-06-19T09:59:09.003Z,18.15
2018-06-19T10:00:08.937Z,18.12
2018-06-19T10:01:08.925Z,18.20
2018-06-19T10:02:08.951Z,18.10
2018-06-19T10:03:09.421Z,18.15
2018-06-19T10:04:08.906Z,18.17
2018-06-19T10:05:08.894Z,18.18
2018-06-19T10:06:08.885Z,18.17
2018-06-19T10:07:08.891Z,18.23
2018-06-19T10:08:08.915Z,18.26
2018-06-19T10:09:08.869Z,18.26
2018-06-19T10:10:08.855Z,18.30
2018-06-19T10:11:08.845Z,18.33
2018-06-19T10:12:09.428Z,18.20
2018-06-19T10:13:09.378Z,18.21
2018-06-19T10:14:10.366Z,18.42
2018-06-19T10:15:08.819Z,18.36
2018-06-19T10:16:08.806Z,18.36
2018-06-19T10:17:08.797Z,18.37
2018-06-19T10:18:08.792Z,18.47
2018-06-19T10:19:09.458Z,18.39
2018-06-19T10:20:08.773Z,18.50
2018-06-19T10:21:08.764Z,18.44
2018-06-19T10:22:08.751Z,18.54
2018-06-19T10:23:08.740Z,18.54
2018-06-19T10:24:08.869Z,18.66
2018-06-19T10:25:08.736Z,18.73
2018-06-19T10:26:08.715Z,18.78
2018-06-19T10:27:08.725Z,18.67
2018-06-19T10:28:08.697Z,18.72
2018-06-19T10:29:08.687Z,18.76
2018-06-19T10:30:08.829Z,18.80
2018-06-19T10:31:08.795Z,18.87
2018-06-19T10:32:08.696Z,18.81
2018-06-19T10:33:08.672Z,18.88
2018-06-19T10:34:08.665Z,18.87
2018-06-19T10:35:08.656Z,18.82
2018-06-19T10:36:08.678Z,18.81
2018-06-19T10:37:08.706Z,18.92
2018-06-19T10:38:08.671Z,18.94
2018-06-19T10:39:08.653Z,18.94
2018-06-19T10:40:08.867Z,18.94
2018-06-19T10:41:09.065Z,18.92
2018-06-19T10:42:09.815Z,19.00
2018-06-19T10:43:08.582Z,19.04
2018-06-19T10:44:08.571Z,19.11
2018-06-19T10:45:08.601Z,19.06
2018-06-19T10:46:08.650Z,19.19
2018-06-19T10:47:08.558Z,19.18
2018-06-19T10:48:08.559Z,19.16
2018-06-19T10:49:08.530Z,19.18
2018-06-19T10:50:08.561Z,19.16
2018-06-19T10:51:08.524Z,19.14
2018-06-19T10:52:08.554Z,19.21
2018-06-19T10:53:08.510Z,19.11
2018-06-19T10:54:08.504Z,19.10
2018-06-19T10:55:09.377Z,19.19
2018-06-19T10:56:08.498Z,19.08
2018-06-19T10:57:08.550Z,19.14
2018-06-19T10:58:08.476Z,19.08
2018-06-19T10:59:08.473Z,19.02
2018-06-19T11:00:08.473Z,19.13
2018-06-19T11:01:08.451Z,19.13
2018-06-19T11:02:08.442Z,19.06
2018-06-19T11:03:08.441Z,19.10
2018-06-19T11:04:08.448Z,19.08
2018-06-19T11:05:08.474Z,19.10
2018-06-19T11:06:08.414Z,19.18
2018-06-19T11:07:08.568Z,19.19
2018-06-19T11:08:08.400Z,19.29
2018-06-19T11:09:08.387Z,19.26
2018-06-19T11:10:08.375Z,19.22
2018-06-19T11:11:08.370Z,19.36
2018-06-19T11:12:08.361Z,19.32
2018-06-19T11:13:08.512Z,19.37
2018-06-19T11:14:08.443Z,19.33
2018-06-19T11:15:08.352Z,19.26
2018-06-19T11:16:08.338Z,19.25
2018-06-19T11:17:08.315Z,19.39
2018-06-19T11:18:08.365Z,19.36
2018-06-19T11:19:08.909Z,19.39
2018-06-19T11:20:08.418Z,19.46
2018-06-19T11:21:08.310Z,19.36
2018-06-19T11:22:08.303Z,19.41
2018-06-19T11:23:08.291Z,19.40
2018-06-19T11:24:08.499Z,19.40
2018-06-19T11:25:12.434Z,19.43
2018-06-19T11:26:08.256Z,19.39
2018-06-19T11:27:08.452Z,19.41
2018-06-19T11:28:08.252Z,19.40
2018-06-19T11:29:08.314Z,19.56
2018-06-19T11:30:08.228Z,19.44
2018-06-19T11:31:08.377Z,19.58
2018-06-19T11:32:08.221Z,19.71
2018-06-19T11:33:08.214Z,19.83
2018-06-19T11:34:08.193Z,19.94
2018-06-19T11:35:08.209Z,20.01
2018-06-19T11:36:08.224Z,20.11
2018-06-19T11:37:08.216Z,20.21
2018-06-19T11:38:08.207Z,20.38
2018-06-19T11:39:08.165Z,20.35
2018-06-19T11:40:08.169Z,20.33
2018-06-19T11:41:08.163Z,20.39
2018-06-19T11:42:08.184Z,20.33
2018-06-19T11:43:08.217Z,20.47
2018-06-19T11:44:08.541Z,20.31
2018-06-19T11:45:08.313Z,20.31
2018-06-19T11:46:08.134Z,20.21
2018-06-19T11:47:08.158Z,20.29
2018-06-19T11:48:08.111Z,20.11
2018-06-19T11:49:09.952Z,20.10
2018-06-19T11:50:08.105Z,20.13
2018-06-19T11:51:08.113Z,20.06
2018-06-19T11:52:08.341Z,19.99
2018-06-19T11:53:08.078Z,19.98
2018-06-19T11:54:08.285Z,19.99
2018-06-19T11:55:08.071Z,19.94
2018-06-19T11:56:09.914Z,19.83
2018-06-19T11:57:08.067Z,19.84
2018-06-19T11:58:08.071Z,19.77
2018-06-19T11:59:08.051Z,19.73
2018-06-19T12:00:08.240Z,19.73
2018-06-19T12:01:08.056Z,19.81
2018-06-19T12:02:08.024Z,19.74
2018-06-19T12:03:08.348Z,19.84
2018-06-19T12:05:45.962Z,19.84
2018-06-19T12:07:26.202Z,19.91
2018-06-19T12:08:25.169Z,19.86
2018-06-19T12:09:25.168Z,19.94
2018-06-19T12:10:25.707Z,19.83
2018-06-19T12:11:25.160Z,19.95
2018-06-19T12:12:26.100Z,19.84
2018-06-19T12:13:25.118Z,19.81
2018-06-19T12:14:25.097Z,19.77
2018-06-19T12:15:25.699Z,19.81
2018-06-19T12:16:25.731Z,19.86
2018-06-19T12:17:27.848Z,19.80
2018-06-19T12:18:25.425Z,19.81
2018-06-19T12:19:25.068Z,19.65
2018-06-19T12:20:25.094Z,19.66
2018-06-19T12:21:25.737Z,19.69
2018-06-19T12:22:27.857Z,19.73
2018-06-19T12:23:29.720Z,19.69
2018-06-19T12:24:25.027Z,19.66
2018-06-19T12:25:29.714Z,19.66
2018-06-19T12:26:25.010Z,19.71
2018-06-19T12:27:25.241Z,19.77
2018-06-19T12:28:25.013Z,19.80
2018-06-19T12:29:25.001Z,19.84
2018-06-19T12:30:24.996Z,19.84
2018-06-19T12:31:24.993Z,19.84
2018-06-19T12:32:25.716Z,19.92
2018-06-19T12:33:24.967Z,19.98
2018-06-19T12:34:28.229Z,19.99
2018-06-19T12:35:25.219Z,20.01
2018-06-19T12:36:25.856Z,20.11
2018-06-19T12:37:25.100Z,20.13
2018-06-19T12:38:24.937Z,20.10
2018-06-19T12:39:24.922Z,20.14
2018-06-19T12:40:24.943Z,20.14
2018-06-19T12:41:24.916Z,20.33
2018-06-19T12:42:24.947Z,20.26
2018-06-19T12:43:24.929Z,20.33
2018-06-19T12:44:25.988Z,20.26
2018-06-19T12:45:24.921Z,20.29
2018-06-19T12:46:25.167Z,20.35
2018-06-19T12:47:24.899Z,20.31
2018-06-19T12:48:31.756Z,20.35
2018-06-19T12:49:24.857Z,20.28
2018-06-19T12:50:25.209Z,20.33
2018-06-19T12:51:24.833Z,20.28
2018-06-19T12:52:24.821Z,20.26
2018-06-19T12:53:24.823Z,20.23
2018-06-19T12:54:24.825Z,20.35
2018-06-19T12:55:24.808Z,20.28
2018-06-19T12:56:25.262Z,20.33
2018-06-19T12:57:24.840Z,20.20
2018-06-19T12:58:24.807Z,20.20
2018-06-19T12:59:24.844Z,20.18
2018-06-19T13:00:26.723Z,20.31
2018-06-19T13:01:24.771Z,20.21
2018-06-19T13:02:24.807Z,20.21
2018-06-19T13:03:26.745Z,20.26
2018-06-19T13:04:24.750Z,20.17
2018-06-19T13:05:25.723Z,20.13
2018-06-19T13:06:24.737Z,20.02
2018-06-19T13:07:24.733Z,20.10
2018-06-19T13:08:24.748Z,20.06
2018-06-19T13:09:26.237Z,20.06
2018-06-19T13:10:24.782Z,20.02
2018-06-19T13:11:24.696Z,20.02
2018-06-19T13:12:24.711Z,20.05
2018-06-19T13:13:24.724Z,19.99
2018-06-19T13:14:24.925Z,20.06
2018-06-19T13:15:24.678Z,20.05
2018-06-19T13:16:24.845Z,20.11
2018-06-19T13:17:24.705Z,20.14
2018-06-19T13:18:26.559Z,20.14
2018-06-19T13:19:24.667Z,20.11
2018-06-19T13:20:31.254Z,20.23
2018-06-19T13:21:24.720Z,20.14
2018-06-19T13:22:24.715Z,20.26
2018-06-19T13:23:24.659Z,20.41
2018-06-19T13:24:24.754Z,20.38
2018-06-19T13:25:24.694Z,20.47
2018-06-19T13:26:46.263Z,20.48
2018-06-19T13:27:24.585Z,20.42
2018-06-19T13:28:25.274Z,20.50
2018-06-19T13:29:24.650Z,20.61
2018-06-19T13:30:24.612Z,20.64
2018-06-19T13:31:24.551Z,20.76
2018-06-19T13:32:25.128Z,20.80
2018-06-19T13:33:25.227Z,20.70
2018-06-19T13:34:24.679Z,20.82
2018-06-19T13:35:25.331Z,20.80
2018-06-19T13:36:25.255Z,20.91
2018-06-19T13:37:25.259Z,20.95
2018-06-19T13:38:24.513Z,20.95
2018-06-19T13:39:24.562Z,20.99
2018-06-19T13:40:24.810Z,20.98
2018-06-19T13:41:24.490Z,21.10
2018-06-19T13:42:25.254Z,21.10
2018-06-19T13:43:24.498Z,21.10
2018-06-19T13:44:24.549Z,21.12
2018-06-19T13:45:24.460Z,21.07
2018-06-19T13:46:24.509Z,21.14
2018-06-19T13:52:00.833Z,21.17
2018-06-19T13:52:52.656Z,21.13
2018-06-19T13:53:52.278Z,21.14
2018-06-19T13:54:52.257Z,21.14
2018-06-19T13:55:52.351Z,21.16
2018-06-19T13:56:52.500Z,21.16
2018-06-19T13:57:52.265Z,21.14
2018-06-19T13:58:52.819Z,21.16
2018-06-19T13:59:52.242Z,21.17
2018-06-19T14:05:04.643Z,21.17
2018-06-19T14:06:04.153Z,21.17
2018-06-19T14:18:44.733Z,21.21
2018-06-19T14:19:44.733Z,21.17
2018-06-19T14:20:57.694Z,21.21
2018-06-19T14:21:44.699Z,21.22
2018-06-19T14:22:46.582Z,21.27
2018-06-19T14:23:44.699Z,21.17
2018-06-19T14:24:44.711Z,21.17
2018-06-19T14:25:46.314Z,21.13
2018-06-19T14:26:45.577Z,21.17
2018-06-19T14:27:54.107Z,21.21
2018-06-19T14:28:44.653Z,21.12
2018-06-19T14:29:44.770Z,21.12
2018-06-19T14:30:44.697Z,21.16
2018-06-19T14:31:44.756Z,21.17
2018-06-19T14:32:44.752Z,21.17
2018-06-19T14:33:46.619Z,21.22
2018-06-19T14:34:44.646Z,21.16
2018-06-19T14:35:44.697Z,21.16
2018-06-19T14:36:44.599Z,21.17
2018-06-19T14:37:44.598Z,21.21
2018-06-19T14:38:44.585Z,21.14
2018-06-19T14:39:44.604Z,21.17
2018-06-19T14:40:45.174Z,21.16
2018-06-19T14:41:44.581Z,21.29
2018-06-19T14:42:46.946Z,21.22
2018-06-19T14:43:44.678Z,21.17
2018-06-19T14:44:44.605Z,21.22
2018-06-19T14:45:44.582Z,21.13
2018-06-19T14:46:44.541Z,21.16
2018-06-19T14:47:44.529Z,21.19
2018-06-19T14:48:44.522Z,21.19
2018-06-19T14:49:44.507Z,21.29
2018-06-19T14:50:44.568Z,21.29
2018-06-19T14:51:44.510Z,21.21
2018-06-19T14:52:44.505Z,21.21
2018-06-19T14:53:44.495Z,21.29
2018-06-19T14:54:44.490Z,21.34
2018-06-19T14:55:44.520Z,21.32
2018-06-19T14:56:44.505Z,21.43
2018-06-19T14:57:44.483Z,21.42
2018-06-19T14:58:44.477Z,21.44
2018-06-19T14:59:44.622Z,21.31
2018-06-19T15:00:44.493Z,21.37
2018-06-19T15:01:44.495Z,21.38
2018-06-19T15:02:44.583Z,21.34
2018-06-19T15:03:44.434Z,21.31
2018-06-19T15:04:44.429Z,21.43
2018-06-19T15:05:44.414Z,21.29
2018-06-19T15:06:44.410Z,21.42
2018-06-19T15:07:44.399Z,21.37
2018-06-19T15:08:44.415Z,21.38
2018-06-19T15:09:44.387Z,21.31
2018-06-19T15:10:44.386Z,21.40
2018-06-19T15:11:44.375Z,21.49
2018-06-19T15:12:44.377Z,21.47
2018-06-19T15:13:44.444Z,21.46
2018-06-19T15:14:44.367Z,21.43
2018-06-19T15:15:44.354Z,21.37
2018-06-19T15:16:44.352Z,21.31
2018-06-19T15:17:44.344Z,21.28
2018-06-19T15:18:44.825Z,21.34
2018-06-19T15:19:44.378Z,21.32
2018-06-19T15:20:47.408Z,21.16
2018-06-19T15:21:44.328Z,21.13
2018-06-19T15:22:44.316Z,20.89
2018-06-19T15:23:44.303Z,20.89
2018-06-19T15:24:44.334Z,20.92
2018-06-19T15:25:44.666Z,20.88
2018-06-19T15:26:44.333Z,20.80
2018-06-19T15:31:22.127Z,20.62
2018-06-19T15:32:22.099Z,20.62
2018-06-19T15:33:22.059Z,20.59
2018-06-19T15:34:22.064Z,20.54
2018-06-19T15:35:22.054Z,20.57
2018-06-19T15:36:22.066Z,20.57
2018-06-19T15:37:22.381Z,20.51
2018-06-19T15:38:22.020Z,20.59
2018-06-19T15:39:22.021Z,20.55
2018-06-19T15:40:22.013Z,20.50
2018-06-19T15:41:22.001Z,20.51
2018-06-19T15:42:21.997Z,20.54
2018-06-19T15:43:21.998Z,20.58
2018-06-19T15:44:21.991Z,20.51
2018-06-19T15:45:21.992Z,20.57